createdAt,value
2022-12-03T00:01:49.287Z,100994.56
2022-12-03T00:04:51.861Z,101008.44
2022-12-03T00:07:54.399Z,101008.09
2022-12-03T00:10:56.679Z,100994.25
2022-12-03T00:13:58.979Z,101011.06
2022-12-03T00:17:01.200Z,101020.63
2022-12-03T00:20:05.206Z,101007.44
2022-12-03T00:23:07.465Z,101016.69
2022-12-03T00:26:09.793Z,101017.00
2022-12-03T00:29:12.035Z,101017.97
2022-12-03T00:32:14.299Z,101023.59
2022-12-03T00:35:16.696Z,101024.09
2022-12-03T00:38:18.970Z,101031.34
2022-12-03T00:41:21.628Z,101031.19
2022-12-03T00:44:23.907Z,101024.91
2022-12-03T00:47:26.174Z,101021.44
2022-12-03T00:50:28.577Z,101026.91
2022-12-03T00:53:30.837Z,101020.63
2022-12-03T00:56:33.124Z,101022.63
2022-12-03T00:59:35.402Z,101030.03
2022-12-03T01:02:37.690Z,101025.25
2022-12-03T01:05:39.980Z,101022.63
2022-12-03T01:08:42.232Z,101020.47
2022-12-03T01:11:44.536Z,101022.78
2022-12-03T01:14:46.929Z,101017.34
2022-12-03T01:17:49.143Z,101017.00
2022-12-03T01:20:51.404Z,101026.09
2022-12-03T01:23:53.720Z,101016.19
2022-12-03T01:26:56.768Z,101024.28
2022-12-03T01:29:59.027Z,101024.59
2022-12-03T01:33:01.296Z,101029.88
2022-12-03T01:36:03.726Z,101030.06
2022-12-03T01:39:06.059Z,101020.00
2022-12-03T01:42:12.124Z,101030.53
2022-12-03T01:45:22.373Z,101030.19
2022-12-03T01:48:24.695Z,101041.91
2022-12-03T01:51:27.004Z,101029.88
2022-12-03T01:54:37.343Z,101024.44
2022-12-03T01:57:40.485Z,101038.31
2022-12-03T02:00:42.767Z,101030.03
2022-12-03T02:03:46.107Z,101027.06
2022-12-03T02:06:48.527Z,101032.19
2022-12-03T02:09:51.209Z,101027.41
2022-12-03T02:13:00.038Z,101029.72
2022-12-03T02:16:03.475Z,101021.31
2022-12-03T02:19:10.530Z,101022.94
2022-12-03T02:22:39.257Z,101016.50
2022-12-03T02:25:41.707Z,101022.47
2022-12-03T02:28:44.082Z,101028.22
2022-12-03T02:31:46.649Z,101028.34
2022-12-03T02:34:49.877Z,101026.41
2022-12-03T02:37:56.273Z,101026.91
2022-12-03T02:41:04.056Z,101027.75
2022-12-03T02:44:07.275Z,101018.00
2022-12-03T02:47:09.726Z,101021.44
2022-12-03T02:50:14.706Z,101028.22
2022-12-03T02:53:20.136Z,101026.56
2022-12-03T02:56:24.852Z,101016.50
2022-12-03T02:59:27.200Z,101026.88
2022-12-03T03:02:29.698Z,101022.28
2022-12-03T03:05:33.145Z,101020.28
2022-12-03T03:08:37.341Z,101034.81
2022-12-03T03:11:39.767Z,101019.31
2022-12-03T03:14:41.991Z,101019.31
2022-12-03T03:17:44.386Z,101006.13
2022-12-03T03:20:46.644Z,101014.22
2022-12-03T03:23:49.394Z,101022.94
2022-12-03T03:26:51.655Z,101024.41
2022-12-03T03:29:54.151Z,101025.25
2022-12-03T03:32:56.586Z,101021.31
2022-12-03T03:36:00.544Z,101015.84
2022-12-03T03:39:04.261Z,101032.19
2022-12-03T03:42:06.634Z,101019.97
2022-12-03T03:45:09.679Z,101023.78
2022-12-03T03:48:12.908Z,101020.16
2022-12-03T03:51:16.855Z,101018.81
2022-12-03T03:54:19.200Z,101031.53
2022-12-03T03:57:22.366Z,101038.47
2022-12-03T04:00:24.820Z,101030.38
2022-12-03T04:03:28.194Z,101019.97
2022-12-03T04:06:30.559Z,101026.75
2022-12-03T04:09:32.799Z,101029.56
2022-12-03T04:12:53.551Z,101021.97
2022-12-03T04:15:55.795Z,101035.81
2022-12-03T04:18:58.100Z,101026.91
2022-12-03T04:22:19.127Z,101032.50
2022-12-03T04:25:40.007Z,101027.41
2022-12-03T04:28:51.344Z,101033.66
2022-12-03T04:32:12.236Z,101030.53
2022-12-03T04:35:40.759Z,101038.28
2022-12-03T04:38:44.485Z,101034.00
2022-12-03T04:41:46.992Z,101035.47
2022-12-03T04:44:50.157Z,101040.59
2022-12-03T04:47:52.466Z,101042.75
2022-12-03T04:50:54.689Z,101033.13
2022-12-03T04:53:57.041Z,101042.84
2022-12-03T04:56:59.347Z,101037.91
2022-12-03T05:00:01.848Z,101040.84
2022-12-03T05:03:04.235Z,101044.97
2022-12-03T05:06:06.937Z,101038.53
2022-12-03T05:09:09.818Z,101033.78
2022-12-03T05:12:12.093Z,101037.06
2022-12-03T05:15:14.355Z,101037.56
2022-12-03T05:18:16.656Z,101036.22
2022-12-03T05:21:18.997Z,101036.41
2022-12-03T05:24:21.332Z,101039.38
2022-12-03T05:27:24.308Z,101043.03
2022-12-03T05:30:26.816Z,101044.34
2022-12-03T05:33:29.155Z,101045.19
2022-12-03T05:36:31.395Z,101034.66
2022-12-03T05:39:33.750Z,101043.38
2022-12-03T05:42:54.187Z,101057.91
2022-12-03T05:45:56.510Z,101045.38
2022-12-03T05:49:13.870Z,101046.72
2022-12-03T05:52:16.122Z,101052.00
2022-12-03T05:55:19.212Z,101056.94
2022-12-03T05:58:21.476Z,101063.19
2022-12-03T06:01:23.716Z,101058.25
2022-12-03T06:04:27.425Z,101060.88
2022-12-03T06:07:29.785Z,101062.88
2022-12-03T06:10:32.642Z,101065.50
2022-12-03T06:13:34.898Z,101071.44
2022-12-03T06:16:37.193Z,101057.25
2022-12-03T06:19:39.550Z,101056.59
2022-12-03T06:22:42.155Z,101065.19
2022-12-03T06:25:44.454Z,101054.63
2022-12-03T06:28:49.165Z,101061.03
2022-12-03T06:31:51.447Z,101046.22
2022-12-03T06:34:53.863Z,101069.78
2022-12-03T06:37:56.340Z,101057.25
2022-12-03T06:40:58.657Z,101058.75
2022-12-03T06:44:00.930Z,101062.88
2022-12-03T06:47:03.317Z,101067.50
2022-12-03T06:50:07.251Z,101076.91
2022-12-03T06:53:09.659Z,101075.75
2022-12-03T06:56:11.921Z,101059.91
2022-12-03T06:59:14.291Z,101070.78
2022-12-03T07:02:16.672Z,101059.06
2022-12-03T07:05:18.925Z,101073.09
2022-12-03T07:08:21.234Z,101087.13
2022-12-03T07:11:32.333Z,101078.19
2022-12-03T07:14:34.601Z,101075.53
2022-12-03T07:17:37.207Z,101075.03
2022-12-03T07:20:39.509Z,101068.78
2022-12-03T07:23:41.881Z,101071.22
2022-12-03T07:26:44.337Z,101056.72
2022-12-03T07:29:46.823Z,101062.19
2022-12-03T07:32:49.459Z,101051.94
2022-12-03T07:35:51.776Z,101071.75
2022-12-03T07:38:54.108Z,101072.28
2022-12-03T07:41:56.379Z,101067.13
2022-12-03T07:44:58.799Z,101076.38
2022-12-03T07:48:01.075Z,101090.53
2022-12-03T07:51:03.561Z,101079.66
2022-12-03T07:54:06.105Z,101085.59
2022-12-03T07:57:08.399Z,101081.78
2022-12-03T08:00:11.325Z,101078.31
2022-12-03T08:03:13.629Z,101070.56
2022-12-03T08:06:15.951Z,101073.38
2022-12-03T08:09:18.175Z,101082.28
2022-12-03T08:12:25.647Z,101085.72
2022-12-03T08:15:33.830Z,101084.25
2022-12-03T08:18:41.171Z,101066.09
2022-12-03T08:21:44.275Z,101090.47
2022-12-03T08:24:46.586Z,101072.00
2022-12-03T08:27:49.294Z,101085.28
2022-12-03T08:31:12.639Z,101099.97
2022-12-03T08:34:44.628Z,101099.50
2022-12-03T08:37:46.993Z,101093.38
2022-12-03T08:40:51.553Z,101101.19
2022-12-03T08:43:53.860Z,101081.84
2022-12-03T08:46:59.396Z,101089.16
2022-12-03T08:50:25.174Z,101090.94
2022-12-03T08:53:46.183Z,101089.69
2022-12-03T08:56:49.019Z,101086.53
2022-12-03T09:00:19.544Z,101104.91
2022-12-03T09:03:21.857Z,101095.84
2022-12-03T09:06:24.236Z,101103.13
2022-12-03T09:09:26.771Z,101104.91
2022-12-03T09:12:29.042Z,101099.50
2022-12-03T09:15:31.476Z,101092.31
2022-12-03T09:18:33.884Z,101084.25
2022-12-03T09:21:36.269Z,101097.63
2022-12-03T09:24:38.525Z,101094.13
2022-12-03T09:27:40.843Z,101076.59
2022-12-03T09:30:43.105Z,101077.69
2022-12-03T09:33:45.396Z,101074.25
2022-12-03T09:36:47.764Z,101063.25
2022-12-03T09:39:50.137Z,101064.16
2022-12-03T09:42:52.442Z,101065.72
2022-12-03T09:45:54.814Z,101052.66
2022-12-03T09:48:57.491Z,101069.56
2022-12-03T09:52:02.220Z,101048.19
2022-12-03T09:55:11.531Z,101050.81
2022-12-03T09:58:16.672Z,101057.13
2022-12-03T10:01:19.043Z,101042.84
2022-12-03T10:04:21.724Z,101043.38
2022-12-03T10:07:25.224Z,101048.69
2022-12-03T10:10:27.654Z,101046.97
2022-12-03T10:13:31.243Z,101042.81
2022-12-03T10:16:36.120Z,101042.75
2022-12-03T10:19:39.687Z,101028.47
2022-12-03T10:22:42.074Z,101039.69
2022-12-03T10:25:55.664Z,101007.19
2022-12-03T10:28:57.923Z,101025.31
2022-12-03T10:32:07.736Z,101021.78
2022-12-03T10:35:37.909Z,101019.91
2022-12-03T10:38:40.250Z,101014.81
2022-12-03T10:41:44.279Z,101006.53
2022-12-03T10:44:46.708Z,101005.50
2022-12-03T10:48:03.197Z,101003.16
2022-12-03T10:51:21.831Z,100996.41
2022-12-03T10:54:25.433Z,101000.41
2022-12-03T10:57:27.719Z,101008.34
2022-12-03T11:00:30.011Z,101007.13
2022-12-03T11:03:36.401Z,100999.28
2022-12-03T11:06:38.748Z,100985.03
2022-12-03T11:09:46.642Z,100985.16
2022-12-03T11:13:26.898Z,100994.13
2022-12-03T11:16:41.395Z,100987.41
2022-12-03T11:19:46.654Z,100976.47
2022-12-03T11:22:50.521Z,100964.44
2022-12-03T11:25:52.791Z,100971.03
2022-12-03T11:28:56.692Z,100962.25
2022-12-03T11:31:59.259Z,100959.03
2022-12-03T11:35:01.667Z,100955.78
2022-12-03T11:38:38.221Z,100957.44
2022-12-03T11:41:40.513Z,100949.53
2022-12-03T11:44:43.300Z,100951.53
2022-12-03T11:48:00.907Z,100962.56
2022-12-03T11:51:03.365Z,100947.94
2022-12-03T11:54:05.856Z,100941.41
2022-12-03T11:57:30.051Z,100948.06
2022-12-03T12:00:32.540Z,100931.28
2022-12-03T12:03:36.067Z,100944.28
2022-12-03T12:06:43.604Z,100947.06
2022-12-03T12:09:55.523Z,100951.31
2022-12-03T12:12:58.103Z,100934.53
2022-12-03T12:16:08.894Z,100934.81
2022-12-03T12:19:33.045Z,100934.03
2022-12-03T12:22:35.353Z,100921.97
2022-12-03T12:25:40.887Z,100930.66
2022-12-03T12:28:43.291Z,100924.03
2022-12-03T12:31:49.480Z,100922.31
2022-12-03T12:35:00.272Z,100913.84
2022-12-03T12:38:11.667Z,100920.22
2022-12-03T12:41:13.936Z,100923.69
2022-12-03T12:44:16.238Z,100923.69
2022-12-03T12:47:18.569Z,100919.81
2022-12-03T12:50:20.902Z,100933.19
2022-12-03T12:53:25.086Z,100928.00
2022-12-03T12:56:32.774Z,100923.63
2022-12-03T12:59:34.988Z,100909.56
2022-12-03T13:02:39.539Z,100916.69
2022-12-03T13:05:43.939Z,100918.09
2022-12-03T13:08:49.244Z,100905.13
2022-12-03T13:11:56.239Z,100906.19
2022-12-03T13:14:59.550Z,100901.28
2022-12-03T13:18:02.626Z,100895.16
2022-12-03T13:21:40.029Z,100915.16
2022-12-03T13:24:50.946Z,100907.94
2022-12-03T13:27:53.190Z,100913.78
2022-12-03T13:30:56.041Z,100911.41
2022-12-03T13:34:00.071Z,100915.91
2022-12-03T13:37:03.065Z,100914.06
2022-12-03T13:40:12.741Z,100926.38
2022-12-03T13:43:17.003Z,100920.41
2022-12-03T13:46:19.353Z,100911.72
2022-12-03T13:49:23.366Z,100926.22
2022-12-03T13:52:26.236Z,100916.00
2022-12-03T13:55:30.321Z,100926.72
2022-12-03T13:58:32.552Z,100920.88
2022-12-03T14:01:36.238Z,100917.06
2022-12-03T14:04:39.404Z,100918.81
2022-12-03T14:07:41.800Z,100933.59
2022-12-03T14:10:44.209Z,100933.38
2022-12-03T14:13:46.426Z,100927.28
2022-12-03T14:16:48.871Z,100932.41
2022-12-03T14:19:51.367Z,100926.91
2022-12-03T14:22:59.073Z,100926.91
2022-12-03T14:26:02.002Z,100929.19
2022-12-03T14:29:08.536Z,100923.91
2022-12-03T14:32:11.294Z,100922.53
2022-12-03T14:35:13.628Z,100922.91
2022-12-03T14:38:16.091Z,100928.03
2022-12-03T14:41:36.914Z,100931.59
2022-12-03T14:44:48.454Z,100935.81
2022-12-03T14:47:50.648Z,100933.88
2022-12-03T14:50:53.068Z,100927.41
2022-12-03T14:53:55.385Z,100942.56
2022-12-03T14:56:57.668Z,100943.84
2022-12-03T15:00:00.137Z,100946.69
2022-12-03T15:03:02.542Z,100938.84
2022-12-03T15:06:05.236Z,100952.34
2022-12-03T15:09:08.027Z,100941.41
2022-12-03T15:12:10.293Z,100939.78
2022-12-03T15:15:12.588Z,100955.19
2022-12-03T15:18:15.000Z,100941.75
2022-12-03T15:21:17.280Z,100939.78
2022-12-03T15:24:19.624Z,100948.81
2022-12-03T15:27:21.924Z,100933.28
2022-12-03T15:30:24.209Z,100948.38
2022-12-03T15:33:26.517Z,100940.31
2022-12-03T15:36:28.912Z,100940.06
2022-12-03T15:39:33.051Z,100953.28
2022-12-03T15:42:35.536Z,100948.00
2022-12-03T15:45:38.150Z,100944.59
2022-12-03T15:48:40.846Z,100937.94
2022-12-03T15:51:43.189Z,100952.38
2022-12-03T15:54:46.166Z,100940.84
2022-12-03T15:57:49.302Z,100942.97
2022-12-03T16:00:51.589Z,100938.38
2022-12-03T16:03:53.866Z,100934.56
2022-12-03T16:06:56.532Z,100940.00
2022-12-03T16:09:59.187Z,100929.97
2022-12-03T16:13:01.480Z,100936.88
2022-12-03T16:16:04.053Z,100933.88
2022-12-03T16:19:06.322Z,100939.94
2022-12-03T16:22:08.856Z,100942.13
2022-12-03T16:25:11.183Z,100954.63
2022-12-03T16:28:13.598Z,100949.38
2022-12-03T16:31:16.133Z,100963.28
2022-12-03T16:34:18.535Z,100956.97
2022-12-03T16:37:20.800Z,100951.66
2022-12-03T16:40:23.791Z,100969.22
2022-12-03T16:43:26.064Z,100953.22
2022-12-03T16:46:28.461Z,100951.16
2022-12-03T16:49:30.831Z,100957.53
2022-12-03T16:52:33.358Z,100954.69
2022-12-03T16:55:35.619Z,100948.66
2022-12-03T16:58:37.986Z,100949.03
2022-12-03T17:01:40.463Z,100953.59
2022-12-03T17:04:42.777Z,100951.31
2022-12-03T17:07:45.070Z,100958.16
2022-12-03T17:10:47.802Z,100961.00
2022-12-03T17:13:50.103Z,100953.56
2022-12-03T17:16:52.998Z,100942.50
2022-12-03T17:19:55.520Z,100957.69
2022-12-03T17:22:58.589Z,100952.81
2022-12-03T17:26:00.874Z,100942.41
2022-12-03T17:29:03.108Z,100954.97
2022-12-03T17:32:05.957Z,100961.13
2022-12-03T17:35:09.177Z,100943.66
2022-12-03T17:38:11.459Z,100958.19
2022-12-03T17:41:13.739Z,100959.34
2022-12-03T17:44:20.760Z,100944.19
2022-12-03T17:47:23.552Z,100952.81
2022-12-03T17:50:25.831Z,100954.00
2022-12-03T17:53:28.226Z,100962.41
2022-12-03T17:56:30.537Z,100965.25
2022-12-03T17:59:32.795Z,100952.66
2022-12-03T18:02:35.199Z,100958.91
2022-12-03T18:05:37.606Z,100953.31
2022-12-03T18:08:39.929Z,100955.25
2022-12-03T18:11:42.213Z,100962.66
2022-12-03T18:14:44.897Z,100953.03
2022-12-03T18:17:47.260Z,100955.25
2022-12-03T18:20:49.556Z,100952.19
2022-12-03T18:23:52.416Z,100947.84
2022-12-03T18:26:54.688Z,100957.38
2022-12-03T18:29:57.501Z,100957.56
2022-12-03T18:32:59.886Z,100971.78
2022-12-03T18:36:03.481Z,100947.84
2022-12-03T18:39:09.123Z,100960.34
2022-12-03T18:42:19.582Z,100956.31
2022-12-03T18:45:21.846Z,100959.59
2022-12-03T18:48:24.955Z,100967.38
2022-12-03T18:51:29.032Z,100969.88
2022-12-03T18:54:31.296Z,100959.81
2022-12-03T18:57:33.549Z,100957.00
2022-12-03T19:00:36.422Z,100954.78
2022-12-03T19:03:38.764Z,100952.66
2022-12-03T19:06:41.018Z,100952.56
2022-12-03T19:09:43.402Z,100944.84
2022-12-03T19:12:45.636Z,100964.75
2022-12-03T19:15:49.205Z,100955.84
2022-12-03T19:18:53.201Z,100948.75
2022-12-03T19:21:56.139Z,100968.44
2022-12-03T19:24:58.420Z,100954.88
2022-12-03T19:28:00.786Z,100975.34
2022-12-03T19:31:05.980Z,100981.22
2022-12-03T19:34:08.343Z,100970.41
2022-12-03T19:37:10.573Z,100969.56
2022-12-03T19:40:13.013Z,100974.63
2022-12-03T19:43:15.365Z,100965.53
2022-12-03T19:46:19.442Z,100981.53
2022-12-03T19:49:22.390Z,100972.53
2022-12-03T19:52:24.737Z,100971.69
2022-12-03T19:55:27.069Z,100972.69
2022-12-03T19:58:29.940Z,100975.94
2022-12-03T20:01:34.541Z,100975.47
2022-12-03T20:04:37.221Z,100978.31
2022-12-03T20:07:39.496Z,100984.22
2022-12-03T20:10:42.030Z,100969.47
2022-12-03T20:13:44.610Z,100968.78
2022-12-03T20:16:47.470Z,100988.91
2022-12-03T20:19:49.857Z,100983.31
2022-12-03T20:22:52.085Z,100986.47
2022-12-03T20:25:54.783Z,100983.88
2022-12-03T20:28:58.050Z,100978.94
2022-12-03T20:32:01.178Z,100983.88
2022-12-03T20:35:03.935Z,100971.06
2022-12-03T20:38:06.256Z,100980.75
2022-12-03T20:41:11.060Z,100983.13
2022-12-03T20:44:14.035Z,100974.75
2022-12-03T20:47:17.353Z,100974.75
2022-12-03T20:50:19.592Z,100960.63
2022-12-03T20:53:25.678Z,100964.88
2022-12-03T20:56:31.484Z,100978.19
2022-12-03T20:59:33.890Z,100976.03
2022-12-03T21:02:37.631Z,100972.56
2022-12-03T21:05:40.048Z,100968.78
2022-12-03T21:08:43.183Z,100975.69
2022-12-03T21:11:45.626Z,100964.75
2022-12-03T21:14:47.894Z,100959.00
2022-12-03T21:17:50.279Z,100962.88
2022-12-03T21:20:52.590Z,100957.22
2022-12-03T21:23:54.896Z,100958.97
2022-12-03T21:26:57.257Z,100965.06
2022-12-03T21:29:59.493Z,100969.00
2022-12-03T21:33:01.804Z,100966.84
2022-12-03T21:36:05.559Z,100985.47
2022-12-03T21:39:08.282Z,100979.34
2022-12-03T21:42:34.624Z,100973.09
2022-12-03T21:45:32.781Z,100966.34
2022-12-03T21:48:36.091Z,100968.66
2022-12-03T21:51:38.402Z,100962.44
2022-12-03T21:54:40.691Z,100969.22
2022-12-03T21:57:42.987Z,100963.72
2022-12-03T22:00:45.258Z,100959.81
2022-12-03T22:03:47.957Z,100956.31
2022-12-03T22:06:50.265Z,100960.59
2022-12-03T22:09:52.724Z,100950.69
2022-12-03T22:12:55.273Z,100950.91
2022-12-03T22:15:57.612Z,100946.66
2022-12-03T22:18:59.923Z,100944.63
2022-12-03T22:22:02.188Z,100961.13
2022-12-03T22:25:04.838Z,100952.91
2022-12-03T22:28:07.161Z,100957.50
2022-12-03T22:31:10.252Z,100951.72
2022-12-03T22:34:12.890Z,100954.22
2022-12-03T22:37:15.219Z,100940.75
2022-12-03T22:40:17.533Z,100938.88
2022-12-03T22:43:20.662Z,100937.19
2022-12-03T22:46:23.120Z,100945.75
2022-12-03T22:49:26.005Z,100942.88
2022-12-03T22:52:28.275Z,100946.31
2022-12-03T22:55:30.548Z,100938.44
2022-12-03T22:58:32.992Z,100944.72
2022-12-03T23:01:37.360Z,100946.59
2022-12-03T23:04:39.641Z,100944.00
2022-12-03T23:07:42.021Z,100934.53
2022-12-03T23:10:46.731Z,100934.41
2022-12-03T23:13:48.984Z,100933.59
2022-12-03T23:16:51.295Z,100936.59
2022-12-03T23:19:53.841Z,100937.25
2022-12-03T23:22:56.331Z,100932.88
2022-12-03T23:26:09.718Z,100937.78
2022-12-03T23:29:12.003Z,100928.78
2022-12-03T23:32:14.304Z,100918.56
2022-12-03T23:35:16.555Z,100915.78
2022-12-03T23:38:18.799Z,100914.09
2022-12-03T23:41:23.223Z,100914.09
2022-12-03T23:44:27.571Z,100925.84
2022-12-03T23:47:29.867Z,100914.56
2022-12-03T23:50:32.241Z,100906.78
2022-12-03T23:53:35.678Z,100914.38
2022-12-03T23:56:39.478Z,100912.91
2022-12-03T23:59:42.200Z,100911.72
